createdAt,value
2022-10-18T00:00:12.286Z,14.82
2022-10-18T00:02:39.899Z,10.30
2022-10-18T00:05:08.030Z,10.52
2022-10-18T00:07:35.645Z,10.77
2022-10-18T00:10:03.710Z,12.32
2022-10-18T00:12:33.686Z,9.88
2022-10-18T00:15:03.678Z,10.40
2022-10-18T00:17:31.625Z,11.50
2022-10-18T00:19:59.519Z,11.43
2022-10-18T00:22:27.144Z,11.55
2022-10-18T00:24:54.777Z,10.13
2022-10-18T00:27:22.382Z,9.70
2022-10-18T00:29:53.630Z,10.00
2022-10-18T00:32:22.878Z,11.13
2022-10-18T00:34:50.933Z,20.65
2022-10-18T00:37:19.582Z,12.70
2022-10-18T00:39:47.430Z,12.93
2022-10-18T00:45:13.988Z,21.98
2022-10-18T00:47:44.785Z,11.32
2022-10-18T00:50:12.821Z,10.95
2022-10-18T00:52:43.597Z,16.17
2022-10-18T00:55:12.350Z,27.70
2022-10-18T00:57:42.802Z,13.27
2022-10-18T01:00:11.458Z,11.82
2022-10-18T01:02:41.273Z,14.02
2022-10-18T01:05:11.947Z,14.57
2022-10-18T01:08:03.261Z,15.02
2022-10-18T01:10:38.789Z,14.85
2022-10-18T01:13:23.402Z,15.90
2022-10-18T01:15:59.956Z,13.80
2022-10-18T01:18:34.065Z,16.48
2022-10-18T01:21:19.712Z,18.92
2022-10-18T01:24:33.275Z,21.35
2022-10-18T01:27:14.726Z,18.77
2022-10-18T01:29:54.005Z,18.48
2022-10-18T01:32:27.889Z,17.75
2022-10-18T01:35:02.665Z,17.48
2022-10-18T01:37:32.821Z,18.48
2022-10-18T01:40:04.166Z,23.65
2022-10-18T01:42:32.427Z,19.23
2022-10-18T01:45:02.346Z,17.83
2022-10-18T01:47:32.610Z,22.23
2022-10-18T01:50:02.325Z,20.58
2022-10-18T01:52:30.240Z,17.83
2022-10-18T01:55:00.489Z,18.80
2022-10-18T01:57:36.977Z,15.88
2022-10-18T02:00:09.247Z,16.20
2022-10-18T02:02:48.273Z,15.18
2022-10-18T02:05:31.128Z,15.60
2022-10-18T02:08:12.643Z,14.90
2022-10-18T02:10:54.165Z,15.25
2022-10-18T02:13:24.538Z,16.13
2022-10-18T02:15:57.329Z,16.08
2022-10-18T02:18:31.339Z,13.38
2022-10-18T02:21:00.929Z,16.95
2022-10-18T02:23:28.792Z,19.10
2022-10-18T02:30:58.797Z,13.15
2022-10-18T02:33:35.269Z,14.82
2022-10-18T02:36:12.447Z,14.50
2022-10-18T02:38:43.077Z,14.77
2022-10-18T02:41:10.741Z,14.85
2022-10-18T02:43:38.420Z,14.57
2022-10-18T02:46:06.834Z,16.48
2022-10-18T02:48:35.785Z,15.65
2022-10-18T02:51:03.376Z,16.60
2022-10-18T02:53:30.942Z,13.85
2022-10-18T02:55:58.568Z,11.98
2022-10-18T02:58:26.177Z,14.93
2022-10-18T03:00:53.784Z,13.70
2022-10-18T03:03:21.718Z,11.93
2022-10-18T03:08:19.765Z,13.48
2022-10-18T03:10:48.230Z,18.48
2022-10-18T03:13:16.126Z,13.27
2022-10-18T03:18:11.587Z,11.05
2022-10-18T03:20:39.227Z,13.88
2022-10-18T03:23:08.238Z,12.65
2022-10-18T03:25:35.845Z,11.68
2022-10-18T03:28:03.549Z,13.18
2022-10-18T03:30:31.319Z,12.10
2022-10-18T03:32:59.497Z,12.00
2022-10-18T03:35:27.138Z,14.38
2022-10-18T03:37:54.738Z,13.80
2022-10-18T03:40:23.724Z,13.75
2022-10-18T03:42:51.354Z,11.68
2022-10-18T03:45:19.118Z,12.32
2022-10-18T03:47:47.016Z,11.23
2022-10-18T03:52:42.196Z,10.60
2022-10-18T03:55:10.409Z,11.65
2022-10-18T03:57:39.349Z,12.20
2022-10-18T04:00:08.867Z,10.95
2022-10-18T04:02:36.484Z,10.25
2022-10-18T04:05:04.179Z,10.38
2022-10-18T04:07:31.792Z,9.98
2022-10-18T04:09:59.477Z,11.18
2022-10-18T04:12:27.158Z,11.52
2022-10-18T04:14:56.097Z,9.20
2022-10-18T04:17:23.807Z,9.43
2022-10-18T04:19:51.417Z,18.42
2022-10-18T04:22:19.027Z,26.20
2022-10-18T04:24:46.656Z,10.60
2022-10-18T04:27:14.245Z,10.35
2022-10-18T04:29:41.872Z,9.80
2022-10-18T04:32:10.901Z,8.98
2022-10-18T04:34:38.558Z,9.00
2022-10-18T04:37:06.466Z,7.35
2022-10-18T04:39:34.086Z,7.95
2022-10-18T04:42:01.737Z,7.60
2022-10-18T04:44:29.340Z,7.28
2022-10-18T04:46:56.933Z,11.15
2022-10-18T04:49:25.908Z,6.82
2022-10-18T04:51:53.504Z,17.65
2022-10-18T04:54:22.857Z,9.25
2022-10-18T04:56:52.797Z,6.38
2022-10-18T04:59:20.517Z,10.73
2022-10-18T05:01:48.320Z,14.68
2022-10-18T05:06:44.964Z,8.38
2022-10-18T05:09:12.601Z,7.68
2022-10-18T05:11:40.222Z,7.55
2022-10-18T05:14:10.092Z,6.00
2022-10-18T05:16:38.119Z,5.85
2022-10-18T05:19:06.506Z,8.05
2022-10-18T05:21:34.535Z,6.32
2022-10-18T05:24:03.539Z,6.13
2022-10-18T05:26:31.144Z,7.70
2022-10-18T05:28:58.779Z,6.82
2022-10-18T05:31:26.422Z,13.20
2022-10-18T05:33:54.069Z,6.88
2022-10-18T05:36:21.709Z,8.40
2022-10-18T05:38:49.319Z,9.13
2022-10-18T05:41:18.309Z,8.73
2022-10-18T05:43:45.964Z,8.10
2022-10-18T05:46:15.687Z,9.75
2022-10-18T05:48:44.435Z,8.10
2022-10-18T05:51:12.426Z,9.32
2022-10-18T05:56:08.354Z,9.40
2022-10-18T05:58:37.541Z,11.90
2022-10-18T06:01:06.840Z,12.90
2022-10-18T06:03:35.490Z,11.73
2022-10-18T06:06:04.217Z,10.30
2022-10-18T06:08:45.872Z,9.70
2022-10-18T06:11:17.915Z,11.25
2022-10-18T06:13:49.083Z,9.57
2022-10-18T06:16:18.937Z,13.60
2022-10-18T06:18:49.169Z,9.32
2022-10-18T06:21:17.188Z,10.52
2022-10-18T06:26:12.870Z,7.97
2022-10-18T06:28:40.574Z,10.32
2022-10-18T06:31:09.769Z,13.05
2022-10-18T06:33:37.822Z,12.68
2022-10-18T06:36:06.930Z,10.95
2022-10-18T06:38:34.891Z,10.18
2022-10-18T06:43:30.553Z,8.60
2022-10-18T06:45:58.201Z,11.23
2022-10-18T06:48:27.153Z,10.63
2022-10-18T06:50:56.858Z,28.08
2022-10-18T07:05:36.167Z,11.93
2022-10-18T07:14:42.289Z,10.15
2022-10-18T07:17:10.065Z,11.32
2022-10-18T07:19:37.713Z,9.50
2022-10-18T07:22:06.731Z,10.05
2022-10-18T07:24:35.686Z,9.68
2022-10-18T07:27:03.291Z,8.77
2022-10-18T07:29:30.937Z,9.07
2022-10-18T07:31:58.744Z,11.82
2022-10-18T07:34:26.546Z,8.18
2022-10-18T07:36:54.202Z,9.45
2022-10-18T07:39:23.618Z,9.23
2022-10-18T07:41:51.263Z,10.93
2022-10-18T07:44:18.904Z,10.32
2022-10-18T07:46:46.770Z,9.25
2022-10-18T07:49:14.774Z,8.55
2022-10-18T07:51:42.773Z,21.10
2022-10-18T07:56:39.894Z,8.27
2022-10-18T07:59:07.553Z,11.20
2022-10-18T08:01:37.811Z,8.70
2022-10-18T08:04:07.896Z,9.05
2022-10-18T08:06:37.619Z,8.75
2022-10-18T08:09:05.679Z,10.13
2022-10-18T08:11:34.462Z,8.73
2022-10-18T08:14:03.477Z,10.60
2022-10-18T08:19:06.841Z,9.60
2022-10-18T08:21:34.477Z,8.88
2022-10-18T08:24:02.398Z,7.85
2022-10-18T08:29:17.627Z,7.95
2022-10-18T08:34:19.695Z,8.55
2022-10-18T08:36:47.699Z,12.35
2022-10-18T08:39:17.525Z,10.77
2022-10-18T08:42:20.104Z,9.95
2022-10-18T08:44:50.262Z,8.38
2022-10-18T08:47:22.000Z,8.93
2022-10-18T08:49:52.914Z,10.85
2022-10-18T08:52:29.481Z,12.57
2022-10-18T08:55:03.159Z,10.45
2022-10-18T08:57:32.074Z,11.55
2022-10-18T09:00:00.053Z,10.07
2022-10-18T09:02:41.199Z,10.13
2022-10-18T09:05:20.500Z,11.23
2022-10-18T09:08:25.756Z,12.05
2022-10-18T09:11:05.284Z,12.40
2022-10-18T09:14:08.408Z,10.48
2022-10-18T09:16:43.653Z,12.70
2022-10-18T09:19:28.914Z,11.23
2022-10-18T09:22:00.448Z,10.77
2022-10-18T09:24:36.932Z,9.75
2022-10-18T09:27:11.768Z,9.20
2022-10-18T09:29:56.284Z,11.55
2022-10-18T09:32:37.101Z,9.98
2022-10-18T09:35:15.060Z,11.27
2022-10-18T09:37:45.070Z,10.85
2022-10-18T09:40:19.189Z,9.93
2022-10-18T09:42:56.329Z,9.23
2022-10-18T09:45:30.348Z,9.80
2022-10-18T09:48:06.076Z,9.75
2022-10-18T09:50:39.350Z,10.63
2022-10-18T09:53:16.838Z,8.35
2022-10-18T09:56:02.847Z,8.38
2022-10-18T09:58:41.199Z,7.50
2022-10-18T10:01:10.025Z,10.52
2022-10-18T10:03:37.851Z,9.35
2022-10-18T10:06:24.238Z,4.65
2022-10-18T10:08:56.326Z,9.50
2022-10-18T10:11:29.035Z,4.95
2022-10-18T10:13:58.813Z,9.10
2022-10-18T10:16:28.032Z,5.35
2022-10-18T10:18:56.194Z,6.30
2022-10-18T10:21:25.570Z,6.10
2022-10-18T10:23:55.810Z,5.47
2022-10-18T10:26:25.142Z,6.38
2022-10-18T10:28:53.032Z,4.97
2022-10-18T10:31:28.589Z,3.50
2022-10-18T10:34:01.385Z,6.60
2022-10-18T10:36:31.736Z,7.75
2022-10-18T10:39:08.206Z,5.35
2022-10-18T10:41:36.313Z,3.55
2022-10-18T10:44:14.768Z,7.13
2022-10-18T10:46:42.973Z,3.55
2022-10-18T10:52:25.627Z,4.72
2022-10-18T10:55:05.838Z,4.97
2022-10-18T10:57:39.723Z,4.90
2022-10-18T11:00:08.421Z,4.38
2022-10-18T11:02:37.348Z,5.05
2022-10-18T11:05:22.669Z,3.33
2022-10-18T11:07:56.214Z,4.32
2022-10-18T11:10:26.136Z,5.93
2022-10-18T11:13:04.351Z,3.90
2022-10-18T11:15:36.630Z,4.40
2022-10-18T11:18:17.262Z,5.32
2022-10-18T11:20:50.121Z,6.38
2022-10-18T11:23:21.610Z,5.00
2022-10-18T11:26:21.150Z,6.43
2022-10-18T11:29:13.142Z,7.32
2022-10-18T11:31:46.073Z,4.05
2022-10-18T11:34:30.188Z,6.57
2022-10-18T11:37:27.147Z,3.80
2022-10-18T11:40:06.476Z,6.25
2022-10-18T11:42:42.325Z,6.40
2022-10-18T11:45:27.978Z,5.32
2022-10-18T11:48:03.256Z,5.13
2022-10-18T11:50:38.622Z,3.28
2022-10-18T11:53:15.803Z,4.03
2022-10-18T11:55:59.146Z,3.58
2022-10-18T11:58:42.023Z,4.38
2022-10-18T12:01:24.612Z,5.38
2022-10-18T12:04:04.076Z,4.35
2022-10-18T12:06:36.344Z,4.85
2022-10-18T12:09:15.314Z,6.28
2022-10-18T12:11:53.485Z,5.20
2022-10-18T12:14:28.095Z,19.05
2022-10-18T12:17:27.934Z,16.17
2022-10-18T12:19:48.645Z,7.15
2022-10-18T12:22:22.311Z,6.03
2022-10-18T12:24:49.974Z,3.50
2022-10-18T12:27:20.249Z,4.22
2022-10-18T12:29:53.517Z,3.20
2022-10-18T12:32:25.744Z,5.80
2022-10-18T12:34:56.322Z,3.47
2022-10-18T12:37:47.721Z,3.72
2022-10-18T12:40:22.363Z,3.47
2022-10-18T12:42:53.082Z,2.38
2022-10-18T12:45:28.636Z,4.93
2022-10-18T12:48:01.351Z,5.32
2022-10-18T12:50:35.762Z,4.68
2022-10-18T12:53:07.185Z,5.20
2022-10-18T12:55:40.535Z,4.30
2022-10-18T12:58:28.570Z,5.18
2022-10-18T13:01:01.149Z,5.60
2022-10-18T13:03:56.985Z,5.05
2022-10-18T13:06:24.975Z,4.55
2022-10-18T13:09:19.465Z,3.30
2022-10-18T13:11:47.412Z,4.45
2022-10-18T13:14:59.212Z,4.68
2022-10-18T13:17:43.086Z,5.80
2022-10-18T13:20:27.013Z,3.92
2022-10-18T13:23:37.808Z,5.80
2022-10-18T13:26:18.620Z,2.47
2022-10-18T13:28:54.642Z,3.08
2022-10-18T13:31:29.768Z,5.80
2022-10-18T13:34:19.780Z,4.25
2022-10-18T13:36:58.346Z,2.97
2022-10-18T13:39:28.362Z,4.78
2022-10-18T13:42:28.908Z,4.75
2022-10-18T13:45:43.542Z,5.95
2022-10-18T13:48:52.211Z,4.97
2022-10-18T13:51:45.723Z,3.85
2022-10-18T13:54:43.058Z,6.22
2022-10-18T13:57:23.159Z,3.35
2022-10-18T14:00:09.220Z,6.18
2022-10-18T14:03:00.139Z,4.80
2022-10-18T14:05:51.956Z,3.88
2022-10-18T14:08:25.579Z,3.63
2022-10-18T14:11:03.067Z,4.40
2022-10-18T14:13:39.108Z,3.03
2022-10-18T14:16:14.406Z,4.88
2022-10-18T14:18:44.053Z,8.57
2022-10-18T14:21:28.743Z,6.15
2022-10-18T14:23:58.770Z,2.95
2022-10-18T14:26:29.157Z,5.78
2022-10-18T14:29:05.078Z,5.53
2022-10-18T14:31:33.645Z,6.00
2022-10-18T14:34:02.198Z,4.68
2022-10-18T14:36:40.633Z,5.05
2022-10-18T14:39:17.910Z,5.70
2022-10-18T14:41:49.912Z,6.43
2022-10-18T14:44:21.163Z,4.60
2022-10-18T14:46:51.048Z,5.18
2022-10-18T14:49:20.429Z,7.82
2022-10-18T14:51:52.284Z,4.55
2022-10-18T14:54:24.010Z,5.10
2022-10-18T14:59:24.193Z,4.20
2022-10-18T15:01:55.034Z,5.75
2022-10-18T15:04:27.857Z,4.80
2022-10-18T15:06:58.271Z,5.57
2022-10-18T15:09:26.420Z,5.45
2022-10-18T15:11:59.873Z,9.05
2022-10-18T15:14:30.365Z,6.22
2022-10-18T15:17:02.605Z,4.70
2022-10-18T15:19:35.425Z,5.40
2022-10-18T15:25:17.776Z,5.72
2022-10-18T15:27:48.638Z,4.90
2022-10-18T15:30:21.593Z,4.85
2022-10-18T15:32:52.066Z,4.18
2022-10-18T15:35:26.422Z,3.75
2022-10-18T15:37:58.001Z,4.95
2022-10-18T15:40:40.725Z,4.85
2022-10-18T15:43:36.979Z,5.57
2022-10-18T15:46:07.005Z,4.07
2022-10-18T15:48:38.011Z,5.22
2022-10-18T15:51:08.873Z,4.30
2022-10-18T15:53:43.929Z,5.22
2022-10-18T15:56:27.073Z,6.30
2022-10-18T15:58:56.885Z,5.65
2022-10-18T16:01:33.380Z,4.97
2022-10-18T16:04:02.039Z,6.50
2022-10-18T16:06:35.200Z,4.25
2022-10-18T16:09:04.483Z,5.03
2022-10-18T16:11:32.081Z,9.52
2022-10-18T16:14:00.651Z,6.97
2022-10-18T16:16:30.009Z,5.22
2022-10-18T16:18:58.558Z,6.50
2022-10-18T16:21:28.940Z,5.93
2022-10-18T16:23:56.950Z,5.70
2022-10-18T16:26:27.439Z,4.70
2022-10-18T16:28:56.090Z,6.68
2022-10-18T16:31:25.497Z,5.10
2022-10-18T16:33:54.325Z,10.52
2022-10-18T16:36:24.026Z,7.38
2022-10-18T16:38:52.349Z,4.13
2022-10-18T16:41:19.996Z,5.68
2022-10-18T16:43:50.712Z,7.38
2022-10-18T16:46:20.529Z,6.95
2022-10-18T16:48:49.659Z,9.25
2022-10-18T16:51:18.725Z,5.80
2022-10-18T16:53:47.233Z,5.53
2022-10-18T16:56:17.040Z,6.85
2022-10-18T16:58:45.764Z,7.03
2022-10-18T17:01:18.118Z,6.43
2022-10-18T17:03:46.812Z,6.03
2022-10-18T17:06:17.802Z,6.47
2022-10-18T17:08:46.443Z,4.97
2022-10-18T17:11:15.765Z,6.25
2022-10-18T17:13:44.014Z,5.97
2022-10-18T17:16:24.096Z,7.72
2022-10-18T17:18:52.320Z,9.55
2022-10-18T17:21:20.034Z,7.72
2022-10-18T17:23:47.669Z,6.28
2022-10-18T17:26:28.373Z,5.78
2022-10-18T17:28:59.609Z,9.02
2022-10-18T17:31:32.407Z,5.53
2022-10-18T17:34:01.801Z,7.28
2022-10-18T17:36:29.970Z,6.88
2022-10-18T17:38:57.606Z,6.60
2022-10-18T17:41:25.596Z,10.70
2022-10-18T17:43:53.332Z,8.48
2022-10-18T17:46:21.076Z,5.13
2022-10-18T17:48:51.340Z,8.07
2022-10-18T17:51:19.111Z,7.03
2022-10-18T17:53:47.279Z,6.88
2022-10-18T17:56:15.947Z,7.90
2022-10-18T17:58:44.326Z,7.20
2022-10-18T18:01:14.289Z,4.68
2022-10-18T18:03:42.561Z,5.97
2022-10-18T18:06:20.255Z,11.88
2022-10-18T18:08:48.669Z,8.60
2022-10-18T18:11:17.944Z,8.98
2022-10-18T18:13:46.236Z,6.90
2022-10-18T18:16:15.826Z,10.98
2022-10-18T18:18:44.321Z,8.15
2022-10-18T18:21:12.512Z,5.75
2022-10-18T18:23:41.525Z,8.32
2022-10-18T18:26:09.561Z,8.05
2022-10-18T18:28:37.552Z,6.32
2022-10-18T18:31:09.449Z,7.85
2022-10-18T18:33:39.828Z,6.97
2022-10-18T18:36:08.752Z,7.28
2022-10-18T18:38:38.839Z,5.65
2022-10-18T18:41:10.934Z,7.93
2022-10-18T18:43:39.960Z,8.55
2022-10-18T18:46:10.608Z,8.00
2022-10-18T18:48:38.381Z,6.53
2022-10-18T18:53:35.062Z,7.43
2022-10-18T18:56:04.790Z,7.63
2022-10-18T18:58:36.072Z,7.22
2022-10-18T19:01:08.147Z,4.57
2022-10-18T19:03:35.955Z,6.50
2022-10-18T19:08:36.284Z,8.80
2022-10-18T19:11:08.070Z,7.40
2022-10-18T19:13:38.274Z,6.03
2022-10-18T19:16:19.546Z,6.32
2022-10-18T19:21:31.966Z,7.75
2022-10-18T19:24:00.204Z,7.35
2022-10-18T19:26:34.218Z,7.28
2022-10-18T19:29:06.328Z,7.05
2022-10-18T19:31:35.891Z,8.00
2022-10-18T19:34:06.578Z,6.85
2022-10-18T19:36:34.629Z,8.45
2022-10-18T19:39:03.670Z,6.15
2022-10-18T19:41:31.593Z,5.80
2022-10-18T19:43:59.236Z,6.78
2022-10-18T19:46:28.222Z,6.28
2022-10-18T19:48:55.998Z,7.13
2022-10-18T19:51:27.904Z,8.50
2022-10-18T19:53:56.686Z,7.13
2022-10-18T19:56:26.382Z,7.10
2022-10-18T19:58:54.408Z,8.73
2022-10-18T20:01:22.548Z,9.05
2022-10-18T20:03:51.598Z,6.03
2022-10-18T20:06:21.587Z,8.10
2022-10-18T20:08:50.821Z,6.03
2022-10-18T20:11:20.306Z,8.38
2022-10-18T20:13:48.614Z,11.02
2022-10-18T20:16:17.745Z,8.27
2022-10-18T20:18:45.480Z,8.95
2022-10-18T20:21:16.185Z,7.43
2022-10-18T20:23:45.421Z,10.73
2022-10-18T20:26:18.311Z,11.15
2022-10-18T20:28:55.436Z,12.25
2022-10-18T20:31:25.210Z,16.00
2022-10-18T20:33:55.736Z,14.25
2022-10-18T20:36:25.651Z,12.50
2022-10-18T20:38:54.793Z,13.40
2022-10-18T20:41:24.619Z,8.48
2022-10-18T20:43:53.085Z,11.50
2022-10-18T20:46:21.308Z,9.95
2022-10-18T20:48:50.933Z,9.68
2022-10-18T20:51:19.378Z,7.70
2022-10-18T20:53:48.732Z,8.95
2022-10-18T20:56:20.124Z,8.43
2022-10-18T20:58:51.182Z,8.23
2022-10-18T21:01:20.240Z,8.15
2022-10-18T21:03:49.530Z,9.55
2022-10-18T21:06:19.065Z,8.52
2022-10-18T21:08:50.385Z,9.35
2022-10-18T21:11:18.069Z,8.70
2022-10-18T21:13:51.349Z,9.23
2022-10-18T21:16:19.136Z,8.98
2022-10-18T21:18:47.024Z,8.30
2022-10-18T21:21:17.425Z,7.03
2022-10-18T21:23:45.377Z,7.15
2022-10-18T21:26:17.606Z,8.57
2022-10-18T21:28:45.525Z,6.10
2022-10-18T21:33:43.061Z,7.90
2022-10-18T21:36:10.944Z,7.78
2022-10-18T21:38:38.926Z,6.90
2022-10-18T21:43:41.457Z,7.47
2022-10-18T21:46:10.966Z,8.48
2022-10-18T21:48:39.248Z,9.77
2022-10-18T21:51:08.444Z,10.13
2022-10-18T21:53:36.915Z,16.75
2022-10-18T21:56:08.604Z,18.92
2022-10-18T21:58:38.551Z,15.80
2022-10-18T22:01:09.600Z,14.55
2022-10-18T22:03:37.565Z,17.90
2022-10-18T22:06:07.987Z,13.10
2022-10-18T22:08:36.122Z,18.38
2022-10-18T22:11:04.285Z,13.02
2022-10-18T22:13:32.126Z,13.00
2022-10-18T22:16:03.125Z,10.07
2022-10-18T22:18:32.504Z,10.25
2022-10-18T22:21:02.733Z,12.70
2022-10-18T22:23:32.998Z,12.65
2022-10-18T22:26:05.014Z,10.15
2022-10-18T22:28:32.778Z,11.60
2022-10-18T22:31:02.363Z,11.32
2022-10-18T22:33:30.947Z,11.43
2022-10-18T22:35:58.829Z,10.85
2022-10-18T22:38:26.459Z,11.43
2022-10-18T22:40:54.065Z,11.57
2022-10-18T22:43:21.774Z,7.65
2022-10-18T22:45:49.386Z,9.13
2022-10-18T22:48:18.370Z,13.70
2022-10-18T22:50:45.984Z,10.60
2022-10-18T22:53:13.627Z,9.20
2022-10-18T22:55:41.243Z,13.60
2022-10-18T22:58:08.955Z,12.35
2022-10-18T23:00:40.424Z,13.10
2022-10-18T23:03:08.185Z,12.88
2022-10-18T23:05:40.227Z,13.52
2022-10-18T23:08:08.335Z,15.60
2022-10-18T23:13:06.292Z,11.20
2022-10-18T23:15:34.013Z,12.45
2022-10-18T23:18:02.599Z,11.82
2022-10-18T23:20:30.256Z,14.18
2022-10-18T23:22:59.268Z,14.73
2022-10-18T23:25:27.143Z,12.45
2022-10-18T23:27:54.875Z,10.05
2022-10-18T23:30:23.220Z,12.52
2022-10-18T23:32:50.857Z,12.48
2022-10-18T23:35:18.694Z,10.02
2022-10-18T23:37:46.610Z,7.70
2022-10-18T23:40:15.636Z,10.82
2022-10-18T23:42:44.294Z,9.00
2022-10-18T23:45:12.195Z,8.88
2022-10-18T23:47:39.835Z,12.30
2022-10-18T23:50:08.113Z,10.52
2022-10-18T23:52:35.745Z,8.60
2022-10-18T23:55:03.705Z,10.90
2022-10-18T23:57:33.932Z,9.93
